Time;durP1;ratioP1;P1;durP2;ratioP2;P2;SDS_P1;SDS_P2;PMS_P1;PMS_P2;Temp;Humidity;BMP_temperature;BMP_pressure;BME280_temperature;BME280_humidity;BME280_pressure;Samples;Min_cycle;Max_cycle;Signal;HPM_P1;HPM_P2
2022/12/09 00:01:55;;;;;;;45.53;13.60;;;11.40;94.20;;;;;;6303794;22;20646;-80
2022/12/09 00:04:24;;;;;;;40.67;14.50;;;11.40;94.30;;;;;;6305389;22;20173;-79
2022/12/09 00:06:52;;;;;;;43.23;15.70;;;11.50;94.30;;;;;;6304557;22;20185;-80
2022/12/09 00:09:21;;;;;;;45.88;17.55;;;11.50;94.20;;;;;;6302932;22;20413;-80
2022/12/09 00:11:51;;;;;;;40.63;15.43;;;11.50;94.40;;;;;;6304141;22;20177;-80
2022/12/09 00:14:20;;;;;;;40.87;15.77;;;11.50;94.30;;;;;;6303979;22;20164;-79
2022/12/09 00:16:48;;;;;;;36.07;14.57;;;11.50;94.30;;;;;;6305584;22;20630;-79
2022/12/09 00:19:17;;;;;;;39.47;14.50;;;11.50;94.30;;;;;;6303497;22;20169;-79
2022/12/09 00:21:45;;;;;;;42.07;14.87;;;11.60;94.20;;;;;;6304723;22;20676;-79
2022/12/09 00:24:14;;;;;;;41.20;14.83;;;11.60;94.20;;;;;;6301302;22;20223;-79
2022/12/09 00:26:42;;;;;;;46.97;14.70;;;11.60;94.10;;;;;;6304613;22;20214;-80
2022/12/09 00:29:12;;;;;;;41.73;15.20;;;11.60;94.10;;;;;;6303289;22;20173;-80
2022/12/09 00:31:40;;;;;;;41.33;14.83;;;11.60;94.00;;;;;;6304499;22;20222;-80
2022/12/09 00:34:12;;;;;;;41.93;15.47;;;11.60;94.00;;;;;;6304180;22;20177;-81
2022/12/09 00:36:41;;;;;;;35.70;13.97;;;11.60;94.00;;;;;;6302277;22;20240;-79
2022/12/09 00:39:11;;;;;;;40.47;14.73;;;11.60;94.00;;;;;;6304989;22;20173;-80
2022/12/09 00:41:39;;;;;;;36.30;14.00;;;11.70;94.10;;;;;;6305170;22;20658;-79
2022/12/09 00:44:08;;;;;;;39.20;13.57;;;11.70;94.00;;;;;;6303242;22;20196;-79
2022/12/09 00:46:38;;;;;;;33.77;13.13;;;11.70;93.90;;;;;;6303518;22;20528;-79
2022/12/09 00:49:06;;;;;;;36.03;13.57;;;11.70;93.80;;;;;;6303537;22;20177;-79
2022/12/09 00:51:35;;;;;;;42.07;14.67;;;11.70;93.80;;;;;;6306463;22;20176;-79
2022/12/09 00:54:03;;;;;;;34.40;14.17;;;11.70;93.80;;;;;;6304650;22;20177;-79
2022/12/09 00:56:32;;;;;;;40.23;13.97;;;11.70;93.70;;;;;;6302076;22;20280;-79
2022/12/09 00:59:00;;;;;;;39.47;14.50;;;11.70;93.80;;;;;;6304899;22;20388;-79
2022/12/09 01:01:29;;;;;;;32.83;12.97;;;11.70;93.80;;;;;;6302871;22;20524;-77
2022/12/09 01:04:00;;;;;;;45.50;14.60;;;11.70;93.80;;;;;;6305530;22;20252;-79
2022/12/09 01:06:30;;;;;;;40.03;14.37;;;11.70;93.80;;;;;;6304948;22;20606;-79
2022/12/09 01:08:58;;;;;;;35.87;12.83;;;11.70;93.80;;;;;;6306164;22;20252;-79
2022/12/09 01:11:28;;;;;;;31.93;12.70;;;11.70;93.80;;;;;;6304012;22;20176;-77
2022/12/09 01:13:59;;;;;;;33.17;12.03;;;11.70;93.70;;;;;;6305758;22;20157;-79
2022/12/09 01:16:31;;;;;;;33.77;12.63;;;11.70;93.50;;;;;;6302319;22;20158;-79
2022/12/09 01:19:03;;;;;;;36.13;12.73;;;11.60;93.50;;;;;;6304781;22;20153;-79
2022/12/09 01:21:33;;;;;;;29.83;11.27;;;11.60;93.50;;;;;;6304975;22;20177;-78
2022/12/09 01:24:05;;;;;;;34.87;12.47;;;11.60;93.50;;;;;;6301771;22;20180;-78
2022/12/09 01:26:34;;;;;;;33.20;13.30;;;11.50;93.40;;;;;;6305029;22;20211;-79
2022/12/09 01:29:03;;;;;;;37.47;13.20;;;11.40;93.40;;;;;;6304497;22;20633;-79
2022/12/09 01:31:31;;;;;;;36.10;13.03;;;11.40;93.50;;;;;;6304805;22;20165;-79
2022/12/09 01:34:01;;;;;;;29.63;12.03;;;11.40;93.60;;;;;;6304319;22;20184;-79
2022/12/09 01:36:30;;;;;;;39.60;13.40;;;11.30;93.60;;;;;;6306787;22;20173;-79
2022/12/09 01:38:59;;;;;;;35.13;12.57;;;11.30;93.70;;;;;;6304906;22;20177;-79
2022/12/09 01:41:28;;;;;;;30.83;11.73;;;11.40;93.80;;;;;;6304102;22;20185;-79
2022/12/09 01:44:12;;;;;;;24.87;10.37;;;11.40;93.80;;;;;;6305507;22;20173;-79
2022/12/09 01:46:41;;;;;;;30.63;12.60;;;11.40;93.80;;;;;;6303856;22;20159;-79
2022/12/09 01:49:15;;;;;;;35.63;13.30;;;11.50;93.80;;;;;;6306331;22;20704;-78
2022/12/09 01:51:47;;;;;;;27.70;12.07;;;11.50;93.70;;;;;;6304534;22;20157;-79
2022/12/09 01:54:16;;;;;;;36.70;12.83;;;11.40;93.60;;;;;;6305189;22;20478;-78
2022/12/09 01:56:44;;;;;;;36.60;12.67;;;11.40;93.70;;;;;;6304429;22;20254;-79
2022/12/09 01:59:15;;;;;;;35.97;12.87;;;11.30;93.70;;;;;;6302381;22;20324;-79
2022/12/09 02:01:47;;;;;;;37.07;13.40;;;11.20;93.80;;;;;;6306025;22;20461;-79
2022/12/09 02:04:17;;;;;;;37.47;13.23;;;11.20;93.80;;;;;;6307238;22;20154;-79
2022/12/09 02:06:46;;;;;;;31.30;11.33;;;11.20;93.90;;;;;;6305470;22;20173;-80
2022/12/09 02:09:14;;;;;;;32.53;12.23;;;11.20;93.90;;;;;;6304038;22;20575;-79
2022/12/09 02:11:56;;;;;;;33.23;12.03;;;11.20;93.90;;;;;;6304270;22;20601;-78
2022/12/09 02:14:29;;;;;;;36.90;13.03;;;11.20;94.00;;;;;;6306064;22;20161;-79
2022/12/09 02:17:13;;;;;;;33.43;11.17;;;11.20;94.00;;;;;;6306964;22;20688;-79
2022/12/09 02:19:54;;;;;;;36.50;12.20;;;11.20;94.00;;;;;;6305701;22;20624;-80
2022/12/09 02:22:29;;;;;;;33.43;12.37;;;11.10;94.00;;;;;;6305359;22;20179;-79
2022/12/09 02:25:04;;;;;;;33.00;11.17;;;11.10;94.00;;;;;;6305480;22;20184;-80
2022/12/09 02:27:39;;;;;;;35.73;12.20;;;11.10;94.10;;;;;;6303326;22;20240;-78
2022/12/09 02:30:14;;;;;;;36.43;12.93;;;11.20;94.20;;;;;;6303143;22;20210;-79
2022/12/09 02:33:19;;;;;;;39.67;13.07;;;11.20;94.10;;;;;;6303656;22;20191;-79
2022/12/09 02:35:53;;;;;;;32.33;12.17;;;11.20;94.10;;;;;;6258948;22;20180;-79
2022/12/09 02:38:25;;;;;;;30.50;12.20;;;11.20;94.10;;;;;;6307199;22;20152;-80
2022/12/09 02:40:58;;;;;;;38.47;12.33;;;11.20;94.10;;;;;;6302271;22;20157;-79
2022/12/09 02:43:30;;;;;;;36.33;12.17;;;11.20;94.00;;;;;;6303813;22;20177;-79
2022/12/09 02:46:00;;;;;;;29.27;11.03;;;11.20;94.10;;;;;;6305082;22;20231;-79
2022/12/09 02:48:32;;;;;;;32.93;11.90;;;11.10;94.10;;;;;;6302233;22;20658;-79
2022/12/09 02:51:04;;;;;;;36.57;11.30;;;11.00;94.00;;;;;;6304756;22;20200;-78
2022/12/09 02:53:34;;;;;;;34.53;12.20;;;11.00;94.00;;;;;;6301179;22;20157;-79
2022/12/09 02:56:04;;;;;;;31.00;11.30;;;11.00;94.10;;;;;;6302529;22;20227;-79
2022/12/09 02:58:33;;;;;;;32.47;11.47;;;11.00;94.10;;;;;;6305025;22;20523;-79
2022/12/09 03:01:01;;;;;;;33.40;12.63;;;11.00;94.20;;;;;;6304207;22;20173;-79
2022/12/09 03:03:33;;;;;;;29.37;11.83;;;11.00;94.20;;;;;;6301661;22;20220;-79
2022/12/09 03:06:08;;;;;;;35.10;11.03;;;10.90;94.20;;;;;;6305595;22;20153;-78
2022/12/09 03:08:45;;;;;;;26.77;10.53;;;10.90;94.20;;;;;;6304045;22;20521;-78
2022/12/09 03:11:17;;;;;;;31.93;11.03;;;10.90;94.30;;;;;;6304490;22;20156;-79
2022/12/09 03:13:55;;;;;;;29.83;11.07;;;10.90;94.30;;;;;;6304256;22;20328;-78
2022/12/09 03:16:29;;;;;;;27.73;10.33;;;10.80;94.30;;;;;;6306007;22;20236;-79
2022/12/09 03:19:03;;;;;;;24.50;10.10;;;10.80;94.40;;;;;;6305427;22;20157;-79
2022/12/09 03:21:38;;;;;;;30.13;11.10;;;10.80;94.40;;;;;;6303657;22;20157;-78
2022/12/09 03:24:09;;;;;;;30.37;10.70;;;10.80;94.40;;;;;;6302754;22;20255;-79
2022/12/09 03:26:38;;;;;;;26.10;9.93;;;10.80;94.40;;;;;;6303016;22;20207;-79
2022/12/09 03:29:13;;;;;;;23.73;9.47;;;10.80;94.30;;;;;;6299728;22;20649;-80
2022/12/09 03:31:42;;;;;;;30.50;10.63;;;10.80;94.30;;;;;;6304825;22;20204;-79
2022/12/09 03:34:15;;;;;;;26.13;10.97;;;10.80;94.30;;;;;;6303681;22;20234;-78
2022/12/09 03:36:48;;;;;;;25.27;10.30;;;10.80;94.30;;;;;;6305871;22;20154;-79
2022/12/09 03:39:24;;;;;;;29.63;10.93;;;10.80;94.30;;;;;;6301394;22;20629;-78
2022/12/09 03:41:56;;;;;;;28.77;10.47;;;10.80;94.30;;;;;;6304804;22;20606;-78
2022/12/09 03:44:31;;;;;;;22.23;10.10;;;10.80;94.30;;;;;;6304544;22;20231;-79
2022/12/09 03:47:00;;;;;;;25.73;10.82;;;10.80;94.40;;;;;;6302994;22;20387;-79
2022/12/09 03:49:29;;;;;;;23.50;10.53;;;10.80;94.50;;;;;;6305045;22;20329;-79
2022/12/09 03:52:05;;;;;;;20.70;9.17;;;10.80;94.50;;;;;;6303927;22;20165;-80
2022/12/09 03:54:38;;;;;;;21.77;10.20;;;10.90;94.50;;;;;;6301384;22;20191;-79
2022/12/09 03:57:11;;;;;;;24.57;10.37;;;10.90;94.30;;;;;;6302075;22;20200;-80
2022/12/09 03:59:51;;;;;;;25.63;10.00;;;10.90;94.20;;;;;;6303088;22;20244;-78
2022/12/09 04:02:20;;;;;;;21.30;10.13;;;10.90;94.20;;;;;;6302909;22;20169;-79
2022/12/09 04:04:49;;;;;;;26.67;10.77;;;10.90;94.20;;;;;;6304650;22;20175;-79
2022/12/09 04:07:19;;;;;;;30.80;11.17;;;10.90;94.20;;;;;;6304136;22;20185;-79
2022/12/09 04:09:48;;;;;;;25.47;10.73;;;10.80;94.00;;;;;;6304277;22;20240;-79
2022/12/09 04:12:16;;;;;;;27.95;10.77;;;10.80;94.10;;;;;;6304995;22;20402;-80
2022/12/09 04:14:47;;;;;;;23.07;9.43;;;10.80;94.10;;;;;;6304497;22;20498;-80
2022/12/09 04:17:18;;;;;;;27.67;10.60;;;10.80;94.10;;;;;;6306137;22;20160;-80
2022/12/09 04:19:47;;;;;;;26.10;11.43;;;10.80;94.10;;;;;;6306597;22;20173;-79
2022/12/09 04:22:15;;;;;;;27.97;10.67;;;10.70;94.10;;;;;;6304862;22;20173;-79
2022/12/09 04:24:45;;;;;;;29.80;12.03;;;10.70;94.20;;;;;;6305887;22;20448;-80
2022/12/09 04:27:13;;;;;;;31.93;11.07;;;10.70;94.30;;;;;;6305401;22;20177;-78
2022/12/09 04:29:42;;;;;;;27.43;10.97;;;10.70;94.30;;;;;;6307112;22;20226;-78
2022/12/09 04:32:10;;;;;;;27.60;11.20;;;10.60;94.30;;;;;;6307325;22;20173;-80
2022/12/09 04:34:39;;;;;;;28.63;10.77;;;10.60;94.40;;;;;;6304622;22;20212;-80
2022/12/09 04:37:07;;;;;;;30.40;12.67;;;10.60;94.40;;;;;;6305252;22;20383;-79
2022/12/09 04:39:35;;;;;;;28.30;10.67;;;10.60;94.40;;;;;;6305876;22;20656;-80
2022/12/09 04:42:05;;;;;;;27.47;10.30;;;10.60;94.80;;;;;;6305073;22;20203;-79
2022/12/09 04:44:34;;;;;;;21.87;9.50;;;10.60;94.40;;;;;;6306787;22;20173;-79
2022/12/09 04:47:03;;;;;;;24.57;9.67;;;10.60;94.40;;;;;;6301636;22;20179;-79
2022/12/09 04:49:31;;;;;;;26.47;10.43;;;10.60;94.40;;;;;;6303036;22;20622;-79
2022/12/09 04:52:00;;;;;;;32.23;10.63;;;10.60;94.40;;;;;;6305897;22;20175;-80
2022/12/09 04:54:28;;;;;;;27.40;10.87;;;10.60;94.40;;;;;;6306816;22;20169;-79
2022/12/09 04:56:57;;;;;;;23.80;10.00;;;10.50;94.50;;;;;;6306744;22;20258;-80
2022/12/09 04:59:28;;;;;;;27.50;11.50;;;10.50;94.50;;;;;;6304989;22;20169;-80
2022/12/09 05:01:57;;;;;;;30.40;11.40;;;10.50;94.50;;;;;;6306015;22;20154;-80
2022/12/09 05:04:25;;;;;;;28.93;11.30;;;10.50;94.50;;;;;;6305129;22;20199;-80
2022/12/09 05:06:54;;;;;;;31.30;11.13;;;10.50;94.60;;;;;;6305595;22;20173;-79
2022/12/09 05:09:22;;;;;;;28.37;11.27;;;10.50;94.60;;;;;;6305512;22;20180;-78
2022/12/09 05:11:52;;;;;;;37.57;12.87;;;10.40;94.80;;;;;;6307596;22;20173;-80
2022/12/09 05:14:20;;;;;;;31.37;13.03;;;10.40;94.90;;;;;;6304179;22;20177;-80
2022/12/09 05:16:50;;;;;;;33.47;12.03;;;10.40;94.90;;;;;;6307018;22;20574;-80
2022/12/09 05:19:19;;;;;;;38.50;12.93;;;10.30;94.90;;;;;;6307806;22;20530;-79
2022/12/09 05:21:48;;;;;;;33.90;11.23;;;10.30;95.10;;;;;;6302664;22;20222;-78
2022/12/09 05:24:16;;;;;;;34.17;11.27;;;10.20;95.30;;;;;;6301594;22;20196;-79
2022/12/09 05:26:45;;;;;;;35.93;12.23;;;10.10;95.50;;;;;;6304160;22;20532;-79
2022/12/09 05:29:13;;;;;;;35.47;11.20;;;10.10;95.40;;;;;;6303739;22;20693;-77
2022/12/09 05:31:51;;;;;;;42.10;13.83;;;10.10;95.40;;;;;;6306698;22;20164;-79
2022/12/09 05:34:20;;;;;;;36.70;13.03;;;10.00;95.80;;;;;;6305164;22;20485;-79
2022/12/09 05:36:50;;;;;;;37.07;14.03;;;10.00;96.00;;;;;;6304378;22;20256;-79
2022/12/09 05:39:19;;;;;;;40.67;14.27;;;10.00;95.90;;;;;;6303065;22;20154;-81
2022/12/09 05:41:48;;;;;;;39.67;13.83;;;9.90;96.20;;;;;;6304839;22;20169;-79
2022/12/09 05:44:16;;;;;;;41.93;13.57;;;10.00;96.50;;;;;;6305430;22;20240;-80
2022/12/09 05:46:45;;;;;;;40.20;13.90;;;9.90;96.40;;;;;;6305551;22;20653;-79
2022/12/09 05:49:15;;;;;;;39.47;12.53;;;10.00;96.30;;;;;;6306015;22;20173;-80
2022/12/09 05:51:44;;;;;;;37.57;12.10;;;9.90;96.50;;;;;;6305094;22;20165;-80
2022/12/09 05:54:12;;;;;;;39.93;13.53;;;9.90;96.50;;;;;;6306653;22;20169;-79
2022/12/09 05:56:41;;;;;;;43.88;15.63;;;9.80;96.70;;;;;;6302622;22;20383;-79
2022/12/09 05:59:15;;;;;;;43.07;13.33;;;9.80;96.80;;;;;;6303990;22;20156;-81
2022/12/09 06:01:44;;;;;;;31.43;12.63;;;9.80;96.80;;;;;;6303104;22;20218;-79
2022/12/09 06:04:12;;;;;;;29.20;12.00;;;9.80;96.80;;;;;;6304219;22;20193;-80
2022/12/09 06:06:43;;;;;;;44.30;13.17;;;9.80;96.80;;;;;;6304122;22;20180;-79
2022/12/09 06:09:12;;;;;;;35.70;11.77;;;9.80;96.80;;;;;;6304098;22;20240;-80
2022/12/09 06:11:41;;;;;;;36.00;12.50;;;9.80;97.00;;;;;;6305540;22;20633;-79
2022/12/09 06:14:11;;;;;;;35.77;12.93;;;9.80;96.90;;;;;;6306736;22;20187;-83
2022/12/09 06:16:39;;;;;;;37.20;13.73;;;9.80;97.00;;;;;;6302992;22;20204;-79
2022/12/09 06:19:11;;;;;;;35.13;12.20;;;9.80;97.30;;;;;;6306760;22;20552;-81
2022/12/09 06:21:42;;;;;;;32.93;12.30;;;9.80;97.00;;;;;;6303475;22;20154;-79
2022/12/09 06:24:10;;;;;;;33.80;12.03;;;9.70;97.00;;;;;;6307000;22;20256;-81
2022/12/09 06:26:39;;;;;;;36.20;13.13;;;9.70;97.00;;;;;;6305823;22;20173;-80
2022/12/09 06:29:08;;;;;;;33.63;12.30;;;9.80;97.10;;;;;;6306722;22;20166;-82
2022/12/09 06:31:37;;;;;;;37.60;11.90;;;9.70;97.20;;;;;;6305727;22;20173;-80
2022/12/09 06:34:06;;;;;;;38.83;12.67;;;9.60;97.30;;;;;;6306641;22;20252;-80
2022/12/09 06:36:34;;;;;;;34.60;12.63;;;9.70;97.50;;;;;;6305111;22;20177;-82
2022/12/09 06:39:05;;;;;;;44.13;14.33;;;9.70;97.30;;;;;;6304002;22;20175;-80
2022/12/09 06:41:40;;;;;;;35.90;12.10;;;9.70;97.30;;;;;;6305108;22;20161;-80
2022/12/09 06:44:08;;;;;;;39.83;13.17;;;9.70;97.30;;;;;;6302470;22;20235;-80
2022/12/09 06:46:37;;;;;;;36.93;12.97;;;9.80;97.30;;;;;;6305191;22;20252;-79
2022/12/09 06:49:06;;;;;;;40.70;13.03;;;9.80;97.40;;;;;;6304000;22;20173;-79
2022/12/09 06:51:35;;;;;;;37.03;10.80;;;9.80;97.40;;;;;;6304919;22;20173;-80
2022/12/09 06:54:05;;;;;;;34.30;11.97;;;9.80;97.40;;;;;;6305265;22;20165;-80
2022/12/09 06:56:34;;;;;;;33.93;12.27;;;9.80;97.40;;;;;;6299863;22;20280;-79
2022/12/09 06:59:06;;;;;;;40.30;14.07;;;9.80;97.40;;;;;;6305518;22;20614;-76
2022/12/09 07:01:35;;;;;;;35.90;12.70;;;9.70;97.50;;;;;;6303922;22;20164;-79
2022/12/09 07:04:06;;;;;;;39.53;11.20;;;9.80;97.50;;;;;;6302701;22;20203;-78
2022/12/09 07:06:37;;;;;;;31.37;11.80;;;9.80;97.60;;;;;;6303952;22;20516;-79
2022/12/09 07:09:09;;;;;;;32.37;12.10;;;9.80;97.50;;;;;;6305638;22;20161;-79
2022/12/09 07:11:39;;;;;;;30.93;10.27;;;9.80;97.50;;;;;;6304084;22;20157;-79
2022/12/09 07:14:07;;;;;;;36.58;13.45;;;9.80;97.40;;;;;;6301130;22;20375;-79
2022/12/09 07:16:36;;;;;;;37.20;12.07;;;9.80;97.80;;;;;;6305051;22;20252;-79
2022/12/09 07:19:06;;;;;;;30.13;10.47;;;9.90;97.70;;;;;;6304492;22;20157;-79
2022/12/09 07:21:34;;;;;;;27.60;11.60;;;9.90;97.60;;;;;;6300065;22;20176;-79
2022/12/09 07:24:04;;;;;;;33.55;12.88;;;9.90;97.50;;;;;;6302013;22;20449;-80
2022/12/09 07:26:33;;;;;;;36.27;12.83;;;9.90;97.60;;;;;;6304322;22;20170;-80
2022/12/09 07:29:02;;;;;;;27.23;10.50;;;9.90;97.60;;;;;;6303389;22;20176;-79
2022/12/09 07:31:32;;;;;;;30.27;11.83;;;9.90;97.50;;;;;;6304186;22;20204;-80
2022/12/09 07:34:01;;;;;;;32.27;11.53;;;10.00;97.50;;;;;;6304165;22;20680;-80
2022/12/09 07:36:32;;;;;;;26.73;10.40;;;10.00;97.40;;;;;;6302827;22;20622;-80
2022/12/09 07:39:02;;;;;;;34.57;12.30;;;10.00;97.30;;;;;;6303606;22;20495;-79
2022/12/09 07:41:33;;;;;;;28.17;10.93;;;10.00;97.40;;;;;;6306427;22;20157;-80
2022/12/09 07:44:01;;;;;;;28.43;10.27;;;10.10;97.40;;;;;;6305928;22;20153;-78
2022/12/09 07:46:30;;;;;;;31.73;11.50;;;10.00;97.20;;;;;;6300418;22;20173;-78
2022/12/09 07:49:01;;;;;;;29.97;10.83;;;10.10;97.20;;;;;;6301740;22;20552;-79
2022/12/09 07:51:30;;;;;;;26.63;9.80;;;10.10;97.10;;;;;;6302240;22;20157;-76
2022/12/09 07:53:59;;;;;;;25.33;10.07;;;10.10;97.10;;;;;;6304511;22;20173;-77
2022/12/09 07:56:28;;;;;;;26.73;10.13;;;10.20;96.90;;;;;;6305700;22;20276;-80
2022/12/09 07:58:59;;;;;;;27.10;9.33;;;10.20;96.90;;;;;;6304118;22;20262;-80
2022/12/09 08:01:29;;;;;;;24.37;10.30;;;10.20;97.00;;;;;;6301308;22;20195;-79
2022/12/09 08:03:58;;;;;;;25.87;10.40;;;10.20;96.70;;;;;;6302890;22;20188;-79
2022/12/09 08:06:29;;;;;;;23.57;9.73;;;10.30;96.60;;;;;;6303112;22;20250;-79
2022/12/09 08:08:58;;;;;;;27.67;11.57;;;10.30;96.60;;;;;;6306649;22;20162;-79
2022/12/09 08:11:29;;;;;;;28.60;10.87;;;10.30;96.60;;;;;;6304451;22;20536;-79
2022/12/09 08:14:01;;;;;;;25.17;10.40;;;10.40;96.50;;;;;;6305563;22;20520;-80
2022/12/09 08:16:38;;;;;;;28.37;11.13;;;10.40;96.40;;;;;;6303360;22;20238;-80
2022/12/09 08:19:07;;;;;;;34.53;11.47;;;10.40;96.40;;;;;;6305493;22;20180;-79
2022/12/09 08:21:36;;;;;;;25.73;10.33;;;10.40;96.40;;;;;;6298484;22;20169;-75
2022/12/09 08:24:06;;;;;;;30.80;11.97;;;10.40;96.40;;;;;;6304278;22;20175;-77
2022/12/09 08:26:36;;;;;;;27.80;11.37;;;10.40;96.40;;;;;;6298015;22;20552;-78
2022/12/09 08:29:09;;;;;;;29.00;12.00;;;10.40;96.40;;;;;;6300306;22;20207;-79
2022/12/09 08:31:52;;;;;;;27.10;11.17;;;10.30;96.40;;;;;;6298723;22;20189;-78
2022/12/09 08:34:46;;;;;;;24.57;10.37;;;10.30;96.60;;;;;;6277189;22;20169;-78
2022/12/09 08:37:15;;;;;;;28.53;11.43;;;10.40;96.60;;;;;;6302785;22;20162;-78
2022/12/09 08:39:46;;;;;;;27.40;11.87;;;10.50;96.50;;;;;;6306586;22;20180;-77
2022/12/09 08:42:15;;;;;;;26.63;10.73;;;10.40;96.40;;;;;;6305462;22;20241;-77
2022/12/09 08:44:48;;;;;;;27.70;11.47;;;10.50;96.30;;;;;;6302239;22;20676;-77
2022/12/09 08:47:17;;;;;;;33.37;12.83;;;10.40;96.30;;;;;;6305622;22;20553;-78
2022/12/09 08:49:48;;;;;;;33.37;12.47;;;10.50;96.50;;;;;;6303995;22;20212;-78
2022/12/09 08:52:17;;;;;;;33.10;12.50;;;10.50;96.50;;;;;;6304272;22;20553;-78
2022/12/09 08:54:46;;;;;;;30.17;11.63;;;10.50;96.50;;;;;;6303677;22;20205;-78
2022/12/09 08:57:14;;;;;;;29.53;11.17;;;10.50;96.50;;;;;;6303671;22;20751;-76
2022/12/09 08:59:51;;;;;;;32.37;10.97;;;10.50;96.40;;;;;;6303788;22;20583;-80
2022/12/09 09:02:21;;;;;;;25.67;10.87;;;10.50;96.40;;;;;;6306100;22;20173;-77
2022/12/09 09:04:49;;;;;;;25.47;10.37;;;10.50;96.30;;;;;;6307646;22;20173;-79
2022/12/09 09:07:19;;;;;;;26.30;9.73;;;10.50;96.30;;;;;;6300219;22;20181;-79
2022/12/09 09:09:48;;;;;;;30.43;11.37;;;10.50;96.40;;;;;;6301701;22;20232;-75
2022/12/09 09:12:17;;;;;;;33.00;11.97;;;10.50;96.40;;;;;;6304410;22;20173;-79
2022/12/09 09:14:45;;;;;;;24.60;10.77;;;10.50;96.30;;;;;;6302180;22;20173;-79
2022/12/09 09:17:15;;;;;;;27.73;10.97;;;10.50;96.30;;;;;;6303565;22;20300;-79
2022/12/09 09:19:44;;;;;;;26.27;10.67;;;10.60;96.30;;;;;;6301488;22;20181;-78
2022/12/09 09:22:13;;;;;;;28.07;10.97;;;10.50;96.30;;;;;;6304512;22;20172;-78
2022/12/09 09:24:41;;;;;;;29.10;11.73;;;10.50;96.30;;;;;;6306247;22;20172;-78
2022/12/09 09:27:10;;;;;;;34.00;12.80;;;10.50;96.40;;;;;;6303397;22;20197;-77
2022/12/09 09:29:38;;;;;;;35.43;12.33;;;10.60;96.40;;;;;;6305560;22;20169;-79
2022/12/09 09:32:07;;;;;;;30.77;10.97;;;10.60;96.50;;;;;;6303780;22;20169;-80
2022/12/09 09:34:37;;;;;;;34.70;12.98;;;10.60;96.40;;;;;;6303349;22;20439;-77
2022/12/09 09:37:06;;;;;;;30.20;11.23;;;10.60;96.60;;;;;;6302245;22;20157;-78
2022/12/09 09:39:35;;;;;;;27.03;10.73;;;10.70;96.60;;;;;;6302703;22;20183;-78
2022/12/09 09:42:05;;;;;;;27.30;9.73;;;10.70;96.50;;;;;;6303540;22;20173;-79
2022/12/09 09:44:39;;;;;;;28.20;10.47;;;10.70;96.40;;;;;;6304053;22;20248;-78
2022/12/09 09:47:16;;;;;;;36.20;13.03;;;10.80;96.30;;;;;;6300798;22;20230;-79
2022/12/09 09:49:52;;;;;;;27.67;10.70;;;10.80;96.10;;;;;;6304781;22;20625;-79
2022/12/09 09:52:24;;;;;;;26.37;10.17;;;10.80;96.10;;;;;;6304315;22;20540;-79
2022/12/09 09:54:53;;;;;;;34.30;12.13;;;10.80;96.10;;;;;;6304453;22;20157;-79
2022/12/09 09:57:29;;;;;;;31.13;11.77;;;10.80;96.00;;;;;;6303937;22;20276;-80
2022/12/09 10:00:06;;;;;;;30.00;11.67;;;10.80;96.00;;;;;;6303108;22;20164;-79
2022/12/09 10:02:59;;;;;;;33.13;13.20;;;10.80;96.00;;;;;;6302617;22;20184;-79
2022/12/09 10:05:32;;;;;;;30.10;13.23;;;10.80;96.00;;;;;;6304009;22;20180;-79
2022/12/09 10:08:17;;;;;;;28.27;12.20;;;10.80;96.00;;;;;;6306317;22;20196;-78
2022/12/09 10:10:54;;;;;;;31.33;11.83;;;10.80;96.10;;;;;;6302832;22;20211;-77
2022/12/09 10:13:32;;;;;;;33.37;11.67;;;10.80;96.10;;;;;;6305473;22;20157;-78
2022/12/09 10:16:16;;;;;;;25.27;10.80;;;10.80;96.10;;;;;;6305695;22;20185;-78
2022/12/09 10:18:58;;;;;;;35.13;11.43;;;10.90;96.30;;;;;;6305268;22;20161;-78
2022/12/09 10:21:41;;;;;;;28.17;11.97;;;10.90;96.20;;;;;;6302986;22;20242;-78
2022/12/09 10:24:19;;;;;;;35.30;11.87;;;10.90;96.20;;;;;;6305391;22;20161;-78
2022/12/09 10:26:57;;;;;;;34.67;12.57;;;11.00;96.20;;;;;;6306604;22;20219;-78
2022/12/09 10:29:46;;;;;;;32.73;12.23;;;11.10;96.20;;;;;;6305572;22;20184;-78
2022/12/09 10:32:19;;;;;;;28.27;11.13;;;11.10;96.10;;;;;;6303152;22;20161;-77
2022/12/09 10:34:48;;;;;;;30.77;11.87;;;11.10;95.90;;;;;;6304605;22;20613;-78
2022/12/09 10:37:25;;;;;;;27.00;11.23;;;11.10;95.80;;;;;;6303180;22;20165;-78
2022/12/09 10:40:00;;;;;;;33.57;12.83;;;11.20;95.90;;;;;;6301815;22;20664;-78
2022/12/09 10:45:22;;;;;;;35.90;13.80;;;11.20;95.80;;;;;;6251998;22;20381;-77
2022/12/09 10:47:52;;;;;;;29.70;11.83;;;11.30;96.00;;;;;;6301143;22;20158;-78
2022/12/09 10:50:32;;;;;;;31.63;12.00;;;11.40;96.00;;;;;;6301110;22;20214;-78
2022/12/09 10:53:11;;;;;;;31.40;13.33;;;11.40;95.90;;;;;;6303632;22;20157;-79
2022/12/09 10:55:44;;;;;;;33.97;14.37;;;11.50;95.70;;;;;;6303737;22;20217;-79
2022/12/09 10:58:18;;;;;;;35.77;14.27;;;11.50;95.50;;;;;;6301394;22;20176;-78
2022/12/09 11:01:03;;;;;;;35.40;14.33;;;11.50;95.50;;;;;;6302396;22;20239;-78
2022/12/09 11:03:34;;;;;;;28.40;13.27;;;11.60;95.50;;;;;;6305387;22;20164;-78
2022/12/09 11:06:14;;;;;;;35.23;13.57;;;11.60;95.30;;;;;;6302942;22;20173;-79
2022/12/09 11:08:50;;;;;;;32.23;14.37;;;11.70;95.40;;;;;;6303020;22;20671;-79
2022/12/09 11:11:19;;;;;;;35.43;14.37;;;11.80;95.20;;;;;;6304872;22;20232;-78
2022/12/09 11:13:48;;;;;;;34.73;14.43;;;11.80;95.20;;;;;;6305308;22;20573;-79
2022/12/09 11:16:26;;;;;;;40.87;15.77;;;11.80;95.20;;;;;;6303648;22;20166;-79
2022/12/09 11:18:55;;;;;;;38.87;14.60;;;11.90;95.20;;;;;;6302087;22;20157;-79
2022/12/09 11:21:35;;;;;;;37.80;15.37;;;11.90;95.30;;;;;;6303690;22;20691;-79
2022/12/09 11:24:14;;;;;;;42.07;17.37;;;12.00;95.30;;;;;;6303067;22;20161;-79
2022/12/09 11:26:43;;;;;;;36.77;17.20;;;12.00;94.90;;;;;;6302706;22;20728;-78
2022/12/09 11:29:16;;;;;;;38.53;15.67;;;12.00;95.00;;;;;;6301813;22;20556;-79
2022/12/09 11:31:45;;;;;;;37.00;14.13;;;12.10;95.10;;;;;;6303605;22;20586;-79
2022/12/09 11:34:18;;;;;;;33.83;13.10;;;12.20;95.10;;;;;;6304999;22;20173;-79
2022/12/09 11:36:49;;;;;;;37.60;14.50;;;12.30;95.00;;;;;;6304915;22;20157;-78
2022/12/09 11:39:30;;;;;;;33.20;13.37;;;12.40;94.90;;;;;;6303363;22;20226;-79
2022/12/09 11:42:14;;;;;;;31.63;14.67;;;12.50;94.80;;;;;;6302219;22;20157;-79
2022/12/09 11:44:56;;;;;;;31.57;12.13;;;12.50;94.40;;;;;;6302368;22;20665;-78
2022/12/09 11:47:31;;;;;;;29.77;12.80;;;12.50;94.30;;;;;;6304674;22;20207;-78
2022/12/09 11:50:22;;;;;;;31.80;13.13;;;12.60;94.40;;;;;;6300419;22;20722;-77
2022/12/09 11:53:07;;;;;;;33.67;12.47;;;12.60;94.30;;;;;;6301270;22;20157;-79
2022/12/09 11:55:43;;;;;;;29.87;12.77;;;12.60;94.20;;;;;;6303738;22;20266;-79
2022/12/09 11:58:15;;;;;;;31.07;13.20;;;12.70;94.20;;;;;;6303853;22;20161;-79
2022/12/09 12:00:49;;;;;;;31.70;13.47;;;12.80;94.30;;;;;;6304819;22;20165;-79
2022/12/09 12:03:21;;;;;;;30.43;13.57;;;12.80;94.10;;;;;;6302953;22;20163;-79
2022/12/09 12:05:53;;;;;;;32.10;13.30;;;12.80;94.10;;;;;;6300812;22;20574;-79
2022/12/09 12:08:26;;;;;;;31.57;13.93;;;12.90;94.00;;;;;;6303777;22;20335;-80
2022/12/09 12:11:00;;;;;;;33.57;14.50;;;12.90;94.00;;;;;;6305097;22;20157;-79
2022/12/09 12:13:31;;;;;;;36.92;16.08;;;13.00;94.00;;;;;;6302885;22;20374;-81
2022/12/09 12:16:07;;;;;;;33.17;14.33;;;13.10;94.00;;;;;;6304369;22;20168;-79
2022/12/09 12:18:43;;;;;;;35.40;14.73;;;13.10;93.80;;;;;;6301544;22;20222;-79
2022/12/09 12:21:38;;;;;;;34.70;15.53;;;13.20;93.70;;;;;;6303174;22;20538;-78
2022/12/09 12:24:28;;;;;;;36.30;14.50;;;13.30;93.60;;;;;;6302890;22;20173;-79
2022/12/09 12:27:12;;;;;;;34.77;15.43;;;13.20;93.50;;;;;;6301759;22;20200;-78
2022/12/09 12:29:48;;;;;;;35.27;15.87;;;13.30;93.30;;;;;;6304270;22;20157;-78
2022/12/09 12:32:29;;;;;;;36.27;15.27;;;13.20;93.30;;;;;;6303365;22;20165;-77
2022/12/09 12:35:21;;;;;;;38.90;15.37;;;13.20;93.30;;;;;;6303016;22;20158;-77
2022/12/09 12:37:59;;;;;;;36.60;15.27;;;13.20;93.30;;;;;;6305351;22;20179;-78
2022/12/09 12:40:40;;;;;;;40.13;16.80;;;13.10;93.10;;;;;;6306976;22;20505;-79
2022/12/09 12:46:35;;;;;;;36.00;16.23;;;13.00;93.30;;;;;;6306617;22;20181;-79
2022/12/09 12:49:17;;;;;;;42.43;17.13;;;13.00;93.30;;;;;;6307480;22;20480;-79
2022/12/09 12:51:58;;;;;;;40.70;16.00;;;13.00;93.30;;;;;;6307538;22;20487;-79
2022/12/09 12:54:37;;;;;;;43.70;16.83;;;12.90;93.30;;;;;;6305432;22;20162;-79
2022/12/09 12:57:13;;;;;;;43.57;16.00;;;12.90;93.30;;;;;;6305286;22;20192;-79
2022/12/09 12:59:54;;;;;;;36.30;16.07;;;12.90;93.30;;;;;;6307399;22;20218;-79